NCAR-RAP Real-Time Weather Data

Output produced by METARs form (17 October 2018  17:09 UTC)
found at http://weather.rap.ucar.edu/surface/
 
KDCA 171652Z 25012G20KT 10SM FEW045 SCT250 19/02 A3007 RMK AO2 SLP180 T01890017
KDCA 171552Z 26013G17KT 10SM BKN250 18/02 A3009 RMK AO2 SLP190 T01780017
KDCA 171452Z 26011G19KT 10SM BKN230 17/00 A3010 RMK AO2 SLP192 T01720000 50005
KDCA 171352Z 30007KT 10SM BKN230 16/02 A3010 RMK AO2 SLP194 T01560022
KDCA 171252Z 31005KT 10SM SCT140 BKN230 13/04 A3010 RMK AO2 SLP193 T01330039
KDCA 171152Z 30007KT 10SM SCT130 BKN230 12/04 A3008 RMK AO2 SLP187 T01220044 10144 20117 50004
KDCA 171052Z 33008KT 10SM BKN130 12/06 A3009 RMK AO2 SLP190 T01220061
KDCA 170952Z 34005KT 10SM FEW018 FEW060 BKN120 12/09 A3009 RMK AO2 SLP189 T01220089
KDCA 170905Z 33004KT 10SM SCT018 BKN060 13/09 A3008 RMK AO2 T01330094
KDCA 170852Z 35006KT 10SM OVC018 13/10 A3007 RMK AO2 SLP183 T01330100 55005
KDCA 170752Z 22003KT 10SM BKN019 OVC022 14/10 A3006 RMK AO2 SLP178 T01390100
KDCA 170652Z 23004KT 10SM OVC022 14/09 A3007 RMK AO2 SLP182 T01390094
KDCA 170552Z 22004KT 10SM OVC029 14/09 A3009 RMK AO2 SLP188 T01390094 10144 20133 56009
KDCA 170548Z 22004KT 10SM OVC029 14/09 A3009 RMK AO2
KDCA 170352Z 22004KT 10SM OVC034 14/09 A3011 RMK AO2 SLP197 T01390089
KDCA 170252Z 22003KT 10SM OVC031 14/09 A3012 RMK AO2 SLP199 T01440089 58005
KDCA 170238Z 21004KT 10SM OVC029 14/09 A3012 RMK AO2 T01390089
KDCA 170227Z 21004KT 10SM BKN030 OVC200 14/08 A3012 RMK AO2 T01390083
KDCA 170152Z 23006KT 10SM OVC180 14/09 A3013 RMK AO2 SLP203 T01390089
KDCA 170052Z 19005KT 10SM OVC210 14/09 A3013 RMK AO2 SLP204 T01390089
KDCA 162352Z 23005KT 10SM OVC220 14/08 A3013 RMK AO2 SLP203 T01440078 10172 20144 53000
KDCA 162252Z 21006KT 10SM OVC240 15/04 A3013 RMK AO2 SLP203 T01500044
KDCA 162152Z 06003KT 10SM FEW150 OVC230 16/04 A3012 RMK AO2 SLP201 T01560044
KDCA 162052Z 00000KT 10SM FEW100 SCT180 BKN250 16/04 A3013 RMK AO2 SLP202 T01610039 56017
KDCA 161952Z 33005KT 10SM SCT180 OVC240 16/04 A3014 RMK AO2 SLP204 T01560039
KDCA 161852Z 31007KT 10SM SCT170 BKN240 17/03 A3016 RMK AO2 SLP210 T01670033
KDCA 161752Z 35007KT 10SM SCT170 BKN250 16/04 A3018 RMK AO2 SLP218 T01610039 10167 20133 58020
KDCA 161652Z 33008KT 10SM BKN170 OVC250 15/03 A3021 RMK AO2 SLP229 T01500033
KDCA 161552Z 35007KT 10SM SCT160 BKN250 16/04 A3024 RMK AO2 SLP237 T01560039
KDCA 161452Z 35013G18KT 10SM SCT160 BKN250 15/04 A3024 RMK AO2 SLP238 T01500044 51012
KDCA 161352Z 32011KT 10SM BKN160 OVC250 13/05 A3023 RMK AO2 SLP237 T01330050
KDCA 161252Z COR 35011KT 10SM BKN160 BKN250 13/04 A3023 RMK AO2 SLP235 T01330039
KDCA 161152Z 33012KT 10SM SCT130 BKN160 BKN230 13/04 A3020 RMK AO2 SLP226 70007 T01330044 10183 20133 53022
KDCA 161052Z 34011KT 10SM SCT130 BKN160 BKN220 13/05 A3018 RMK AO2 SLP220 T01330050
KDCA 160952Z 34020G25KT 10SM BKN130 BKN220 14/05 A3015 RMK AO2 SLP208 T01440050
KDCA 160852Z 34019G23KT 10SM BKN120 OVC220 16/06 A3014 RMK AO2 SLP204 T01560061 51016
KDCA 160752Z 34012KT 10SM FEW060 BKN070 BKN140 16/07 A3013 RMK AO2 SLP202 T01610072
KDCA 160652Z 34010G17KT 10SM BKN055 OVC140 17/09 A3011 RMK AO2 SLP194 T01720089
KDCA 160552Z 35010KT 10SM BKN049 OVC055 18/11 A3009 RMK AO2 SLP188 T01830111 10233 20183 53024
KDCA 160452Z 33010G17KT 10SM OVC080 19/12 A3005 RMK AO2 PK WND 32027/0419 SLP175 T01940117 402330150
KDCA 160402Z 33018G27KT 10SM FEW020 SCT028 OVC033 21/15 A3002 RMK AO2 PK WND 31027/0358 T02110150
KDCA 160352Z 31013G20KT 10SM FEW020 BKN025 OVC060 22/16 A3002 RMK AO2 SLP165 T02170161
KDCA 160349Z 32013G20KT 10SM FEW020 BKN025 OVC060 22/16 A3002 RMK AO2 PRESRR
KDCA 160252Z 21009KT 10SM FEW080 SCT100 OVC120 22/18 A2997 RMK AO2 SLP147 T02220183 57003
KDCA 160152Z 20009KT 10SM FEW075 FEW100 SCT250 23/18 A2998 RMK AO2 SLP152 T02330183
KDCA 160052Z 19008KT 10SM FEW070 SCT100 BKN250 23/18 A2996 RMK AO2 SLP146 T02280183
KDCA 152352Z 22010KT 10SM FEW065 SCT110 BKN250 22/18 A2998 RMK AO2 SLP151 60001 T02220183 10228 20194 55003
KDCA 152252Z 20010KT 10SM FEW060 SCT120 BKN250 21/18 A2996 RMK AO2 SLP145 T02110178
KDCA 152152Z 21010KT 10SM FEW055 BKN100 OVC120 21/17 A2998 RMK AO2 SLP151 T02110172
KDCA 152052Z 20009KT 10SM FEW050 BKN100 OVC250 21/17 A2999 RMK AO2 RAE08 SLP153 P0001 60001 T02110172 58018
KDCA 151952Z 18009KT 10SM -RA SCT050 SCT070 OVC110 20/17 A3001 RMK AO2 RAB20 SLP161 P0000 T02000172
KDCA 151852Z 19006KT 10SM FEW025 SCT075 BKN120 OVC150 20/17 A3003 RMK AO2 RAB16E30 SLP168 P0000 T02000172
KDCA 151752Z 20008KT 10SM FEW017 SCT075 BKN095 OVC130 19/16 A3004 RMK AO2 RAB20E39 SLP171 P0000 60006 T01940161 10211 20156 56019
KDCA 151652Z 20009KT 10SM FEW015 SCT090 BKN160 OVC250 20/16 A3006 RMK AO2 SLP177 T02000161
KDCA 151617Z 19012KT 10SM SCT013 BKN120 OVC250 21/17 A3007 RMK AO2 T02110167
KDCA 151552Z 20009KT 10SM BKN012 OVC250 19/16 A3007 RMK AO2 SLP182 T01940161
KDCA 151509Z 21009KT 10SM OVC010 18/16 A3009 RMK AO2 T01830156
KDCA 151452Z 20014G19KT 10SM OVC009 18/16 A3009 RMK AO2 SLP190 60006 T01780156 58011
KDCA 151352Z 19009KT 10SM OVC008 17/14 A3010 RMK AO2 RAE08 SLP193 P0001 T01670144
KDCA 151337Z 19010KT 10SM OVC008 16/14 A3012 RMK AO2 RAE08 P0001 T01610144
KDCA 151252Z 19011KT 6SM -RA BR OVC006 16/14 A3013 RMK AO2 SLP201 P0005 T01560139 $
KDCA 151211Z 19009KT 3SM -RA BR OVC006 16/14 A3012 RMK AO2 P0002 T01560139 $
KDCA 151152Z 19010KT 5SM -RA BR BKN008 BKN012 OVC027 16/14 A3013 RMK AO2 SLP201 P0002 60011 70012 T01560139 10156 20150 58003 $
KDCA 151139Z 19010KT 7SM -RA BKN010 BKN023 OVC028 16/13 A3013 RMK AO2 P0001 T01560133 $
KDCA 151123Z 19011KT 9SM -RA SCT007 OVC022 15/13 A3013 RMK AO2 P0001 T01500133 $
KDCA 151052Z 18009KT 5SM -RA BR OVC007 16/14 A3013 RMK AO2 SLP202 P0005 T01560139 $
KDCA 150959Z 20005KT 5SM -RA BR BKN007 OVC025 15/13 A3013 RMK AO2 P0002 T01500133 $
KDCA 150952Z 20006KT 4SM RA BR BKN008 BKN017 OVC025 15/13 A3013 RMK AO2 SLP203 P0004 T01500133 $
KDCA 150946Z 20007KT 4SM RA BR BKN008 BKN017 OVC025 15/13 A3014 RMK AO2 P0003 $
KDCA 150940Z 20007KT 6SM -RA BR SCT008 BKN017 OVC025 15/13 A3014 RMK AO2 P0002 T01500133 $
KDCA 150859Z 21005KT 10SM -RA FEW010 BKN027 OVC031 15/13 A3014 RMK AO2 P0000 T01500128
KDCA 150852Z 22006KT 10SM -RA FEW010 OVC033 16/13 A3015 RMK AO2 RAB47 SLP208 P0000 60000 T01560128 55012
KDCA 150752Z 20007KT 10SM FEW010 BKN034 OVC060 15/12 A3014 RMK AO2 SLP206 T01500122
KDCA 150704Z 19005KT 10SM SCT009 OVC035 15/13 A3016 RMK AO2 T01500128
KDCA 150652Z 21006KT 10SM SCT010 OVC035 15/13 A3017 RMK AO2 SLP216 T01500128
KDCA 150552Z 21006KT 10SM FEW012 OVC036 15/12 A3018 RMK AO2 RAE50 SLP221 P0000 60000 T01500122 10156 20144 58010